Time;durP1;ratioP1;P1;durP2;ratioP2;P2;SDS_P1;SDS_P2;PMS_P1;PMS_P2;Temp;Humidity;BMP_temperature;BMP_pressure;BME280_temperature;BME280_humidity;BME280_pressure;Samples;Min_cycle;Max_cycle;Signal;HPM_P1;HPM_P2
2022/01/16 00:01:45;;;;;;;11.70;5.87;;;;;;;11.18;52.55;101304.94;4907305;29;20056;-70
2022/01/16 00:04:10;;;;;;;7.27;4.10;;;;;;;10.44;52.74;101197.56;4912230;29;20059;-69
2022/01/16 00:06:42;;;;;;;13.27;6.55;;;;;;;11.06;52.71;101279.97;4944491;29;20040;-68
2022/01/16 00:09:09;;;;;;;9.33;4.20;;;;;;;10.97;52.72;101296.38;4914396;29;20084;-69
2022/01/16 00:11:36;;;;;;;14.30;6.80;;;;;;;11.09;52.69;101330.59;4916491;29;20152;-68
2022/01/16 00:14:05;;;;;;;8.20;5.07;;;;;;;11.09;52.64;101336.19;4914251;29;20139;-69
2022/01/16 00:16:33;;;;;;;8.00;4.93;;;;;;;11.14;52.60;101372.59;4914032;29;20194;-69
2022/01/16 00:19:00;;;;;;;8.57;4.90;;;;;;;11.08;52.34;101362.47;4911296;29;20165;-69
2022/01/16 00:21:31;;;;;;;13.33;6.20;;;;;;;11.25;52.28;101393.13;4903925;29;20147;-69
2022/01/16 00:23:58;;;;;;;11.50;7.30;;;;;;;11.31;52.05;101413.56;4913069;29;20052;-69
2022/01/16 00:26:25;;;;;;;10.53;5.27;;;;;;;11.28;52.04;101419.69;4916138;29;20131;-68
2022/01/16 00:28:52;;;;;;;9.03;5.27;;;;;;;11.14;52.19;101330.66;4915535;29;20159;-67
2022/01/16 00:31:22;;;;;;;9.70;5.27;;;;;;;11.26;52.08;101268.13;4912338;29;20147;-65
2022/01/16 00:33:50;;;;;;;12.90;7.78;;;;;;;11.28;51.96;101235.13;4909912;29;20491;-66
2022/01/16 00:36:19;;;;;;;5.10;3.10;;;;;;;11.29;51.82;101265.66;4908076;29;20056;-71
2022/01/16 00:38:47;;;;;;;8.70;4.23;;;;;;;11.18;52.13;101268.59;4914015;29;20063;-73
2022/01/16 00:41:20;;;;;;;10.17;5.03;;;;;;;11.26;51.96;101150.69;4917019;29;20147;-71
2022/01/16 00:43:52;;;;;;;20.80;6.73;;;;;;;11.22;51.85;101133.63;4916810;29;20052;-69
2022/01/16 00:46:19;;;;;;;8.73;5.03;;;;;;;11.21;52.13;101175.81;4916905;29;20052;-68
2022/01/16 00:48:47;;;;;;;12.93;7.60;;;;;;;11.21;52.19;101214.97;4912481;29;20447;-71
2022/01/16 00:51:15;;;;;;;11.23;6.73;;;;;;;10.94;51.98;101143.25;4916488;29;20131;-71
2022/01/16 00:53:43;;;;;;;10.50;5.70;;;;;;;11.29;51.91;101206.09;4916449;29;20051;-71
2022/01/16 00:56:12;;;;;;;15.03;4.20;;;;;;;11.27;51.84;101253.88;4917047;29;20056;-71
2022/01/16 00:58:40;;;;;;;12.55;6.82;;;;;;;11.21;51.77;101268.06;4917399;29;20088;-70
2022/01/16 01:01:08;;;;;;;12.17;7.00;;;;;;;11.29;51.87;101301.16;4911604;29;20132;-71
2022/01/16 01:03:37;;;;;;;8.77;5.83;;;;;;;11.08;52.10;101323.34;4914958;29;20491;-70
2022/01/16 01:06:05;;;;;;;10.00;6.77;;;;;;;11.20;52.07;101288.75;4916361;29;20111;-71
2022/01/16 01:08:32;;;;;;;8.47;5.27;;;;;;;11.21;52.04;101288.47;4916922;29;20052;-70
2022/01/16 01:11:04;;;;;;;5.77;3.80;;;;;;;11.19;52.20;101259.13;4920388;29;20086;-71
2022/01/16 01:13:43;;;;;;;7.73;4.03;;;;;;;11.14;52.18;101310.22;4913914;29;20135;-75
2022/01/16 01:16:15;;;;;;;7.57;5.57;;;;;;;10.46;52.36;101231.66;4914580;29;20088;-75
2022/01/16 01:18:44;;;;;;;19.73;5.73;;;;;;;11.07;52.18;101292.84;4914223;29;20451;-74
2022/01/16 01:21:24;;;;;;;11.07;4.07;;;;;;;11.08;52.34;101311.31;4917236;29;20083;-73
2022/01/16 01:23:51;;;;;;;10.05;6.65;;;;;;;11.00;52.57;101323.81;4920216;29;20059;-72
2022/01/16 01:26:19;;;;;;;6.97;4.80;;;;;;;10.99;52.27;101313.75;4918374;29;20127;-72
2022/01/16 01:28:57;;;;;;;9.23;4.73;;;;;;;11.05;52.33;101318.28;4905898;29;20063;-72
2022/01/16 01:31:43;;;;;;;3.30;2.90;;;;;;;11.03;52.36;101314.06;4908522;29;20447;-72
2022/01/16 01:34:22;;;;;;;13.07;5.10;;;;;;;11.18;52.04;101317.00;4919518;29;20060;-72
2022/01/16 01:37:00;;;;;;;10.43;6.43;;;;;;;11.20;51.98;101342.72;4920051;29;20135;-71
2022/01/16 01:39:27;;;;;;;11.70;5.60;;;;;;;11.13;52.25;101342.09;4918381;29;20083;-71
2022/01/16 01:42:05;;;;;;;12.23;6.17;;;;;;;11.26;51.90;101346.41;4919444;29;20087;-71
2022/01/16 01:53:13;;;;;;;8.73;5.10;;;;;;;10.51;52.87;101273.59;4917647;29;20052;-70
2022/01/16 01:56:11;;;;;;;5.37;3.47;;;;;;;10.86;52.92;101326.19;4919250;29;20094;-70
2022/01/16 01:58:54;;;;;;;12.50;6.60;;;;;;;10.96;52.82;101330.19;4919237;29;20463;-70
2022/01/16 02:01:47;;;;;;;12.90;5.27;;;;;;;10.54;52.65;101259.09;4874771;29;20112;-69
2022/01/16 02:11:14;;;;;;;6.40;3.97;;;;;;;10.80;52.98;101331.97;4813074;29;20545;-68
2022/01/16 02:28:25;;;;;;;7.90;5.07;;;;;;;10.99;52.70;101341.69;4869918;29;20160;-69
2022/01/16 02:36:23;;;;;;;14.00;8.47;;;;;;;11.12;52.50;101351.59;4861463;29;20077;-71
2022/01/16 02:38:50;;;;;;;16.07;8.43;;;;;;;11.20;52.24;101348.31;4888800;29;20143;-68
2022/01/16 02:41:17;;;;;;;5.27;3.77;;;;;;;11.03;51.89;101297.28;4917403;29;20485;-69
2022/01/16 02:43:50;;;;;;;12.70;6.00;;;;;;;11.17;52.14;101331.22;4912464;29;20083;-69
2022/01/16 02:48:56;;;;;;;13.30;7.40;;;;;;;10.96;52.51;101330.19;4910539;29;20106;-69
2022/01/16 02:51:31;;;;;;;13.30;4.77;;;;;;;11.10;52.56;101349.06;4918246;29;20066;-70
2022/01/16 02:53:58;;;;;;;13.57;6.17;;;;;;;10.99;53.08;101358.47;4917461;29;20499;-70
2022/01/16 02:56:40;;;;;;;11.47;6.83;;;;;;;10.97;53.24;101365.41;4915798;29;20146;-72
2022/01/16 02:59:20;;;;;;;8.90;4.67;;;;;;;10.94;53.38;101352.84;4912779;29;20135;-69
2022/01/16 03:02:25;;;;;;;19.53;7.73;;;;;;;10.86;53.35;101333.72;4910450;29;20063;-69
2022/01/16 03:05:08;;;;;;;6.37;4.37;;;;;;;10.87;53.23;101344.66;4918014;29;20116;-69
2022/01/16 03:07:35;;;;;;;;;;;;;;;11.00;53.58;101371.31;4918809;29;20127;-69
2022/01/16 03:10:57;;;;;;;8.80;5.93;;;;;;;10.78;53.63;101342.59;4932648;29;20018;-69
2022/01/16 03:13:35;;;;;;;6.10;4.53;;;;;;;10.48;54.23;101310.41;4915013;29;20083;-70
2022/01/16 03:16:13;;;;;;;10.13;6.25;;;;;;;10.78;55.24;101359.34;4919811;29;20161;-70
2022/01/16 03:24:17;;;;;;;9.73;5.50;;;;;;;10.42;57.16;101347.75;4916161;29;20131;-68
2022/01/16 03:26:47;;;;;;;6.93;4.17;;;;;;;10.33;58.68;101361.34;4913979;29;20139;-68
2022/01/16 03:29:16;;;;;;;7.18;2.97;;;;;;;10.14;59.52;101357.97;4917807;29;20474;-67
2022/01/16 03:32:07;;;;;;;8.57;4.70;;;;;;;10.13;59.88;101345.13;4913007;29;20131;-67
2022/01/16 03:34:34;;;;;;;5.60;4.33;;;;;;;10.13;60.25;101333.94;4917416;29;20136;-67
2022/01/16 03:37:03;;;;;;;15.53;7.30;;;;;;;9.86;61.41;101300.38;4915736;29;20087;-67
2022/01/16 03:39:30;;;;;;;8.17;5.03;;;;;;;9.96;61.85;101336.78;4910704;29;20135;-67
2022/01/16 03:41:59;;;;;;;11.97;5.53;;;;;;;10.14;61.32;101334.78;4917246;29;20102;-66
2022/01/16 03:44:27;;;;;;;11.75;6.40;;;;;;;10.12;61.40;101326.69;4917041;29;20084;-65
2022/01/16 03:46:54;;;;;;;8.17;3.97;;;;;;;10.14;61.34;101330.06;4914240;29;20499;-67
2022/01/16 03:49:23;;;;;;;8.97;4.47;;;;;;;9.89;61.31;101271.13;4913747;29;20474;-67
2022/01/16 03:51:53;;;;;;;14.73;7.30;;;;;;;9.80;60.96;101239.19;4916833;29;20108;-67
2022/01/16 03:54:22;;;;;;;6.68;4.30;;;;;;;10.44;60.49;101309.25;4917007;29;20382;-66
2022/01/16 03:56:50;;;;;;;13.60;7.70;;;;;;;10.51;60.68;101323.84;4916819;29;20083;-65
2022/01/16 03:59:17;;;;;;;7.80;3.20;;;;;;;10.28;60.91;101276.66;4915709;29;20134;-66
2022/01/16 04:01:44;;;;;;;9.90;3.70;;;;;;;10.50;61.26;101330.56;4913772;29;20080;-66
2022/01/16 04:04:11;;;;;;;8.73;3.87;;;;;;;10.06;61.47;101259.91;4911535;29;20131;-65
2022/01/16 04:06:38;;;;;;;6.43;3.10;;;;;;;10.48;62.21;101343.06;4914625;29;20055;-65
2022/01/16 04:09:05;;;;;;;8.73;5.33;;;;;;;10.50;62.34;101313.78;4915915;29;20095;-65
2022/01/16 04:11:33;;;;;;;10.23;5.87;;;;;;;10.57;62.23;101299.63;4916745;29;20060;-66
2022/01/16 04:14:09;;;;;;;3.97;2.93;;;;;;;10.62;62.16;101305.25;4911456;29;20127;-65
2022/01/16 04:16:37;;;;;;;9.43;2.80;;;;;;;10.60;61.95;101299.94;4909991;29;20087;-65
2022/01/16 04:19:22;;;;;;;3.97;2.87;;;;;;;10.61;61.51;101289.59;4911939;29;20059;-65
2022/01/16 04:21:58;;;;;;;7.47;2.93;;;;;;;10.71;60.75;101303.69;4898732;29;20056;-68
2022/01/16 04:24:25;;;;;;;2.93;2.63;;;;;;;10.83;60.58;101311.91;4914569;29;20080;-67
2022/01/16 04:26:52;;;;;;;6.60;2.67;;;;;;;10.79;60.27;101319.97;4928547;29;20052;-67
2022/01/16 04:29:22;;;;;;;4.33;2.27;;;;;;;10.79;59.97;101314.38;4912516;29;20139;-68
2022/01/16 04:31:58;;;;;;;3.00;2.37;;;;;;;10.72;59.55;101288.59;4906991;28;20483;-67
2022/01/16 04:34:30;;;;;;;10.63;4.33;;;;;;;10.88;59.35;101307.22;4908302;29;20079;-67
2022/01/16 04:37:24;;;;;;;3.57;2.57;;;;;;;10.79;59.28;101317.16;4898256;29;20790;-67
2022/01/16 04:39:59;;;;;;;6.03;2.57;;;;;;;10.95;58.95;101307.00;4906651;29;20555;-67
2022/01/16 04:45:21;;;;;;;7.23;3.40;;;;;;;10.93;59.30;101309.19;4913925;29;20107;-67
2022/01/16 04:47:50;;;;;;;9.13;2.80;;;;;;;10.92;59.32;101307.53;4910840;29;20083;-66
2022/01/16 04:50:17;;;;;;;8.63;3.30;;;;;;;10.77;59.39;101298.97;4912865;29;20142;-67
2022/01/16 04:52:45;;;;;;;3.63;2.27;;;;;;;10.82;59.24;101313.00;4911933;29;20127;-67
2022/01/16 04:55:13;;;;;;;6.43;3.13;;;;;;;10.85;58.76;101309.69;4915875;29;20131;-67
2022/01/16 04:57:41;;;;;;;12.10;5.20;;;;;;;10.59;58.98;101295.44;4914659;29;20135;-66
2022/01/16 05:00:13;;;;;;;11.47;4.83;;;;;;;10.77;58.60;101332.50;4915405;29;20534;-67
2022/01/16 05:02:41;;;;;;;6.43;3.50;;;;;;;10.86;58.44;101353.28;4910609;29;20563;-67
2022/01/16 05:05:08;;;;;;;9.33;4.00;;;;;;;10.58;57.98;101334.81;4911472;29;20127;-67
2022/01/16 05:07:35;;;;;;;10.13;4.07;;;;;;;10.77;58.06;101366.91;4913192;29;20470;-66
2022/01/16 05:10:13;;;;;;;4.10;2.60;;;;;;;10.79;58.14;101352.66;4898540;29;20156;-66
2022/01/16 05:12:50;;;;;;;3.37;2.10;;;;;;;10.79;58.09;101352.66;4914423;29;20059;-66
2022/01/16 05:18:02;;;;;;;5.70;2.87;;;;;;;10.88;57.64;101345.50;4912703;29;20455;-68
2022/01/16 05:20:29;;;;;;;5.80;4.07;;;;;;;10.74;57.51;101349.81;4914001;29;20148;-68
2022/01/16 05:22:56;;;;;;;7.53;4.00;;;;;;;10.66;57.64;101345.50;4914184;29;20084;-68
2022/01/16 05:25:22;;;;;;;7.50;4.83;;;;;;;10.58;57.46;101346.81;4914931;29;20131;-68
2022/01/16 05:27:49;;;;;;;5.60;3.57;;;;;;;10.64;57.64;101350.53;4916318;29;20094;-67
2022/01/16 05:30:16;;;;;;;5.73;3.40;;;;;;;10.33;57.73;101277.56;4911322;29;20047;-68
2022/01/16 05:32:43;;;;;;;4.20;2.57;;;;;;;10.72;57.40;101326.88;4899655;29;20068;-66
2022/01/16 05:35:10;;;;;;;5.40;3.83;;;;;;;10.81;57.30;101339.28;4912875;29;20132;-67
2022/01/16 05:37:37;;;;;;;6.23;3.83;;;;;;;10.79;57.42;101341.47;4912401;29;20682;-69
2022/01/16 05:40:05;;;;;;;5.80;3.30;;;;;;;10.76;57.51;101342.84;4913742;29;20099;-66
2022/01/16 05:42:32;;;;;;;14.60;4.27;;;;;;;10.89;57.31;101355.56;4946234;29;20131;-67
2022/01/16 05:45:00;;;;;;;4.60;2.23;;;;;;;10.60;57.48;101322.28;4912568;29;20091;-68
2022/01/16 05:47:26;;;;;;;5.93;4.33;;;;;;;10.82;57.67;101352.97;4915178;29;20131;-68
2022/01/16 05:49:53;;;;;;;5.87;3.60;;;;;;;10.78;57.26;101348.19;4911155;29;20131;-70
2022/01/16 05:52:41;;;;;;;5.70;3.17;;;;;;;10.92;57.13;101369.00;4925946;29;20542;-69
2022/01/16 05:55:08;;;;;;;5.77;3.20;;;;;;;10.87;56.99;101364.22;4912774;29;20158;-71
2022/01/16 05:57:35;;;;;;;4.03;2.93;;;;;;;10.95;56.88;101385.25;4917739;29;20092;-71
2022/01/16 06:00:04;;;;;;;5.87;3.03;;;;;;;10.87;56.87;101368.94;4906147;29;20139;-70
2022/01/16 06:02:31;;;;;;;2.27;2.07;;;;;;;10.82;56.93;101352.13;4917295;29;20483;-71
2022/01/16 06:04:58;;;;;;;4.23;3.23;;;;;;;11.02;56.77;101390.63;4916200;29;20135;-71
2022/01/16 06:07:25;;;;;;;4.57;3.53;;;;;;;10.94;56.72;101372.41;4918154;29;20515;-72
2022/01/16 06:09:55;;;;;;;4.53;2.83;;;;;;;11.02;56.83;101404.59;4916580;29;20064;-71
2022/01/16 06:12:21;;;;;;;3.83;3.10;;;;;;;10.95;57.02;101402.03;4920458;29;20053;-69
2022/01/16 06:14:48;;;;;;;6.13;3.70;;;;;;;10.82;56.96;101391.25;4925724;29;20044;-68
2022/01/16 06:17:16;;;;;;;4.53;2.97;;;;;;;11.03;56.65;101406.28;4921737;29;20617;-68
2022/01/16 06:19:43;;;;;;;2.17;1.77;;;;;;;10.87;56.71;101369.81;4930140;29;20063;-64
2022/01/16 06:22:09;;;;;;;4.17;3.00;;;;;;;10.95;56.34;101379.66;4936820;29;20051;-68
2022/01/16 06:24:36;;;;;;;6.93;3.53;;;;;;;11.06;56.41;101398.22;4941710;29;20056;-67
2022/01/16 06:27:03;;;;;;;6.93;4.43;;;;;;;11.03;56.57;101383.94;4943917;29;20036;-66
2022/01/16 06:29:30;;;;;;;5.20;3.37;;;;;;;10.47;56.42;101286.38;4941203;29;20055;-68
2022/01/16 06:31:57;;;;;;;4.80;2.30;;;;;;;10.89;56.49;101370.38;4937858;29;20163;-66
2022/01/16 06:34:23;;;;;;;3.67;2.77;;;;;;;11.05;56.58;101396.53;4932953;29;20052;-64
2022/01/16 06:36:50;;;;;;;7.97;3.63;;;;;;;11.02;56.52;101408.25;4929353;29;20048;-64
2022/01/16 06:39:21;;;;;;;;;;;;;;;10.92;56.70;101405.34;4943364;29;20404;-64
2022/01/16 06:41:48;;;;;;;6.13;2.40;;;;;;;11.01;56.57;101409.34;4933896;29;20293;-68
2022/01/16 06:44:42;;;;;;;5.43;3.23;;;;;;;10.86;56.74;101392.41;4900476;29;20052;-68
2022/01/16 06:47:24;;;;;;;2.47;1.87;;;;;;;10.91;56.77;101384.94;4911194;29;20044;-68
2022/01/16 06:49:53;;;;;;;6.53;3.47;;;;;;;10.80;56.93;101369.16;4917727;29;20139;-68
2022/01/16 06:52:27;;;;;;;5.17;3.03;;;;;;;10.76;56.77;101355.97;4909138;29;20155;-68
2022/01/16 06:54:54;;;;;;;2.87;2.23;;;;;;;10.88;57.24;101373.44;4915389;29;20075;-67
2022/01/16 06:57:21;;;;;;;3.37;3.00;;;;;;;10.83;57.17;101370.56;4918819;29;20131;-69
2022/01/16 06:59:48;;;;;;;8.63;2.50;;;;;;;10.76;57.03;101367.13;4918276;29;20068;-69
2022/01/16 07:02:16;;;;;;;6.47;1.97;;;;;;;10.82;57.24;101363.31;4919868;29;20066;-69
2022/01/16 07:04:47;;;;;;;5.97;2.83;;;;;;;10.85;57.21;101368.38;4935565;29;20044;-67
2022/01/16 07:07:14;;;;;;;5.13;3.30;;;;;;;10.86;57.18;101382.06;4913216;29;20500;-66
2022/01/16 07:09:44;;;;;;;3.30;2.70;;;;;;;10.62;57.17;101355.53;4918290;29;20442;-67
2022/01/16 07:12:12;;;;;;;4.53;3.10;;;;;;;10.77;57.70;101386.44;4913083;29;20044;-67
2022/01/16 07:14:39;;;;;;;4.97;2.93;;;;;;;10.80;57.21;101393.44;4907547;29;20045;-71
2022/01/16 07:17:06;;;;;;;6.73;3.47;;;;;;;10.74;57.43;101400.94;4909207;29;20048;-68
2022/01/16 07:19:34;;;;;;;3.43;2.57;;;;;;;10.59;57.33;101379.22;4913945;29;20062;-67
2022/01/16 07:22:01;;;;;;;3.43;2.57;;;;;;;10.52;57.57;101369.38;4916714;29;20480;-66
2022/01/16 07:24:28;;;;;;;10.50;4.20;;;;;;;10.76;57.50;101409.88;4917118;29;20107;-67
2022/01/16 07:26:54;;;;;;;3.23;2.57;;;;;;;10.61;57.53;101392.97;4916475;29;20131;-72
2022/01/16 07:29:21;;;;;;;9.73;4.07;;;;;;;10.51;57.45;101376.06;4917403;29;20076;-72
2022/01/16 07:31:49;;;;;;;5.97;2.53;;;;;;;10.75;57.66;101424.97;4912342;29;20060;-66
2022/01/16 07:34:19;;;;;;;6.43;3.87;;;;;;;10.77;57.47;101416.31;4915476;29;20055;-71
2022/01/16 07:36:45;;;;;;;7.10;3.95;;;;;;;10.77;57.45;101438.66;4918200;29;20475;-70
2022/01/16 07:39:12;;;;;;;6.80;3.17;;;;;;;10.79;57.15;101437.31;4900278;29;20143;-71
2022/01/16 07:41:39;;;;;;;5.27;3.33;;;;;;;10.86;57.28;101434.31;4944873;29;20087;-67
2022/01/16 07:44:09;;;;;;;2.63;1.67;;;;;;;10.81;57.30;101437.06;4910310;29;20140;-73
2022/01/16 07:46:36;;;;;;;4.22;2.20;;;;;;;10.87;56.85;101449.97;4902181;29;20059;-71
2022/01/16 07:49:03;;;;;;;4.53;2.77;;;;;;;10.71;57.15;101434.97;4904361;29;20154;-64
2022/01/16 07:51:31;;;;;;;4.60;3.47;;;;;;;10.85;57.04;101455.84;4909199;29;20527;-65
2022/01/16 07:53:59;;;;;;;6.40;2.30;;;;;;;10.91;56.98;101456.75;4913715;29;20040;-70
2022/01/16 07:56:27;;;;;;;7.27;3.03;;;;;;;10.93;56.84;101464.84;4909178;29;20067;-64
2022/01/16 07:58:55;;;;;;;5.47;3.30;;;;;;;10.75;56.78;101436.16;4905593;29;20456;-68
2022/01/16 08:01:22;;;;;;;9.27;3.23;;;;;;;10.82;56.88;101467.53;4909471;29;20116;-65
2022/01/16 08:03:51;;;;;;;3.57;2.50;;;;;;;10.82;56.94;101475.91;4905443;29;20053;-65
2022/01/16 08:06:18;;;;;;;9.93;4.60;;;;;;;10.74;56.65;101450.38;4904211;29;20132;-69
2022/01/16 08:08:45;;;;;;;4.03;2.90;;;;;;;10.83;56.68;101472.00;4910419;29;20079;-66
2022/01/16 08:11:12;;;;;;;6.20;4.13;;;;;;;10.83;56.71;101468.38;4906200;29;20622;-63
2022/01/16 08:13:40;;;;;;;9.50;3.97;;;;;;;10.86;56.75;101487.41;4912653;29;20044;-65
2022/01/16 08:16:07;;;;;;;5.97;3.33;;;;;;;10.96;56.64;101489.50;4912358;29;20139;-64
2022/01/16 08:18:35;;;;;;;10.23;5.10;;;;;;;10.95;56.78;101494.25;4905668;29;20055;-65
2022/01/16 08:21:02;;;;;;;5.80;2.90;;;;;;;10.90;56.59;101482.97;4911510;29;20519;-65
2022/01/16 08:23:29;;;;;;;4.27;3.00;;;;;;;10.82;56.66;101475.06;4911067;29;20151;-65
2022/01/16 08:25:56;;;;;;;3.30;2.07;;;;;;;10.95;56.65;101508.22;4914073;29;20179;-64
2022/01/16 08:28:24;;;;;;;3.83;2.87;;;;;;;10.96;56.82;101509.91;4904227;29;20048;-65
2022/01/16 08:30:50;;;;;;;7.40;3.63;;;;;;;11.05;56.36;101511.13;4905739;29;20155;-65
2022/01/16 08:33:18;;;;;;;9.57;4.67;;;;;;;11.09;56.20;101515.09;4911488;29;20059;-65
2022/01/16 08:35:45;;;;;;;5.43;3.20;;;;;;;11.11;56.38;101515.69;4943860;29;20146;-65
2022/01/16 08:38:12;;;;;;;3.20;2.23;;;;;;;11.22;56.19;101527.00;4913179;29;20052;-65
2022/01/16 08:40:39;;;;;;;5.97;3.20;;;;;;;11.29;55.85;101533.25;4909528;29;20138;-65
2022/01/16 08:43:09;;;;;;;10.50;4.73;;;;;;;11.46;55.57;101533.16;4913454;29;20143;-65
2022/01/16 08:45:40;;;;;;;3.83;2.85;;;;;;;11.47;55.17;101527.28;4916281;29;20078;-65
2022/01/16 08:48:08;;;;;;;1.50;1.33;;;;;;;11.18;54.90;101475.50;4915060;29;20499;-65
2022/01/16 08:50:36;;;;;;;6.13;4.53;;;;;;;11.57;55.08;101530.19;4911010;29;20143;-65
2022/01/16 08:53:03;;;;;;;5.70;2.67;;;;;;;11.27;55.16;101499.94;4900198;29;20051;-65
2022/01/16 08:55:33;;;;;;;5.37;3.20;;;;;;;11.55;54.81;101551.97;4900169;29;20132;-65
2022/01/16 08:58:01;;;;;;;6.15;3.08;;;;;;;11.65;55.00;101558.81;4905498;29;20075;-71
2022/01/16 09:00:28;;;;;;;5.77;3.40;;;;;;;11.88;54.34;101544.53;4909699;29;20070;-66
2022/01/16 09:02:57;;;;;;;5.10;2.60;;;;;;;12.11;53.89;101559.31;4904268;29;20550;-65
2022/01/16 09:05:25;;;;;;;3.67;2.43;;;;;;;12.20;53.70;101546.47;4911118;29;20048;-68
2022/01/16 09:07:53;;;;;;;10.70;2.80;;;;;;;12.13;53.55;101545.88;4914547;29;20056;-66
2022/01/16 09:10:20;;;;;;;4.00;2.87;;;;;;;12.23;53.48;101566.41;4904851;29;20059;-66
2022/01/16 09:12:47;;;;;;;5.63;3.00;;;;;;;12.11;53.18;101536.91;4911721;29;20139;-68
2022/01/16 09:15:14;;;;;;;7.20;2.83;;;;;;;12.13;53.16;101540.25;4911309;29;20042;-67
2022/01/16 09:17:42;;;;;;;7.67;3.70;;;;;;;12.40;52.96;101565.41;4905587;29;20487;-66
2022/01/16 09:20:13;;;;;;;6.70;3.47;;;;;;;12.38;52.87;101551.69;4910960;29;20091;-65
2022/01/16 09:22:44;;;;;;;4.70;2.80;;;;;;;12.66;52.66;101577.66;4901831;29;20044;-65
2022/01/16 09:25:13;;;;;;;3.60;2.57;;;;;;;12.78;52.24;101575.50;4905849;29;21229;-66
2022/01/16 09:27:41;;;;;;;5.40;4.00;;;;;;;12.91;52.05;101586.22;4898986;29;20127;-65
2022/01/16 09:30:10;;;;;;;9.57;4.43;;;;;;;13.09;51.69;101593.34;4903108;29;20155;-65
2022/01/16 09:32:37;;;;;;;5.17;2.77;;;;;;;13.25;51.46;101602.72;4905167;29;20084;-65
2022/01/16 09:35:06;;;;;;;6.30;3.63;;;;;;;13.34;50.86;101603.88;4910701;29;20055;-65
2022/01/16 09:37:33;;;;;;;11.47;3.30;;;;;;;13.00;50.88;101567.78;4919078;29;20131;-65
2022/01/16 09:40:01;;;;;;;5.77;4.17;;;;;;;13.11;50.85;101579.91;4912771;29;20139;-65
2022/01/16 09:42:28;;;;;;;3.83;2.60;;;;;;;13.32;50.34;101606.09;4927139;29;20048;-65
2022/01/16 09:44:55;;;;;;;4.63;3.17;;;;;;;13.12;50.07;101580.72;4929697;29;20044;-64
2022/01/16 09:47:22;;;;;;;3.77;2.10;;;;;;;13.24;50.45;101620.66;4911654;29;20058;-64
2022/01/16 09:49:49;;;;;;;7.70;4.80;;;;;;;13.40;50.37;101625.25;4915979;29;20052;-65
2022/01/16 09:52:18;;;;;;;3.33;2.50;;;;;;;13.47;50.32;101622.19;4918347;29;20052;-65
2022/01/16 09:54:45;;;;;;;5.87;3.87;;;;;;;13.54;50.05;101616.28;4913892;29;20104;-71
2022/01/16 09:57:14;;;;;;;9.87;4.93;;;;;;;13.70;49.88;101627.31;4918579;29;20083;-65
2022/01/16 09:59:42;;;;;;;6.17;3.87;;;;;;;13.24;49.85;101567.38;4917387;29;20102;-64
2022/01/16 10:02:09;;;;;;;7.77;4.77;;;;;;;13.65;49.96;101640.50;4916221;29;20075;-65
2022/01/16 10:04:38;;;;;;;6.50;3.17;;;;;;;13.77;49.73;101637.44;4914007;29;20052;-64
2022/01/16 10:07:09;;;;;;;7.80;3.93;;;;;;;13.92;49.70;101634.69;4916927;29;20160;-63
2022/01/16 10:09:38;;;;;;;9.20;4.50;;;;;;;14.08;49.46;101639.19;4915991;29;20087;-65
2022/01/16 10:12:15;;;;;;;3.77;2.97;;;;;;;14.01;49.43;101615.31;4916112;29;20131;-66
2022/01/16 10:14:47;;;;;;;5.27;3.97;;;;;;;14.35;49.17;101638.13;4913072;29;20087;-66
2022/01/16 10:17:25;;;;;;;4.70;3.60;;;;;;;14.45;48.64;101638.13;4913204;29;20096;-63
2022/01/16 10:20:00;;;;;;;5.67;3.07;;;;;;;14.78;48.07;101659.25;4913416;29;20476;-65
2022/01/16 10:23:01;;;;;;;7.70;3.77;;;;;;;15.21;47.40;101670.16;4917137;29;20079;-66
2022/01/16 10:25:41;;;;;;;5.97;3.23;;;;;;;15.08;47.00;101651.91;4923097;29;20146;-64
2022/01/16 10:28:16;;;;;;;;;;;;;;;14.80;47.37;101673.03;4911815;29;20079;-68
2022/01/16 10:30:48;;;;;;;11.17;5.60;;;;;;;14.76;47.47;101678.38;4914199;29;20364;-64
2022/01/16 10:33:19;;;;;;;11.23;4.03;;;;;;;14.56;47.56;101651.09;4908022;29;20135;-64
2022/01/16 10:35:50;;;;;;;5.83;3.77;;;;;;;14.49;47.93;101667.34;4902120;29;20151;-65
2022/01/16 10:38:20;;;;;;;6.50;4.13;;;;;;;14.39;48.23;101678.59;4913808;29;20083;-65
2022/01/16 10:40:50;;;;;;;;;;;;;;;14.29;48.47;101679.44;4910951;29;20138;-65
2022/01/16 10:43:19;;;;;;;;;;;;;;;14.19;48.77;101673.81;4915365;29;19927;-65
2022/01/16 10:45:46;;;;;;;9.73;5.77;;;;;;;14.18;48.67;101658.88;4915203;29;20006;-65
2022/01/16 10:48:14;;;;;;;8.40;5.03;;;;;;;14.34;48.56;101668.19;4915507;29;20139;-64
2022/01/16 10:50:47;;;;;;;6.77;3.50;;;;;;;14.28;48.71;101665.66;4914698;29;20104;-64
2022/01/16 10:53:16;;;;;;;11.40;5.90;;;;;;;14.33;48.77;101674.94;4914126;29;20123;-65
2022/01/16 10:56:17;;;;;;;5.75;3.30;;;;;;;14.09;49.00;101670.97;4948297;29;20131;-66
2022/01/16 10:58:46;;;;;;;5.53;3.37;;;;;;;13.99;49.16;101686.66;4921458;29;20468;-64
2022/01/16 11:01:18;;;;;;;8.13;4.07;;;;;;;14.00;49.16;101681.88;4917824;29;20087;-65
2022/01/16 11:03:53;;;;;;;5.57;2.73;;;;;;;14.07;49.06;101679.66;4917176;29;20420;-66
2022/01/16 11:06:21;;;;;;;9.83;5.73;;;;;;;14.06;49.02;101649.88;4918514;29;20072;-65
2022/01/16 11:08:58;;;;;;;5.37;3.13;;;;;;;14.41;48.78;101682.81;4914756;29;20047;-64
2022/01/16 11:11:26;;;;;;;5.70;3.13;;;;;;;14.40;48.55;101681.13;4914850;29;20567;-65
2022/01/16 11:14:00;;;;;;;12.87;4.33;;;;;;;14.29;48.62;101656.09;4917274;29;20143;-65
2022/01/16 11:16:27;;;;;;;7.47;4.37;;;;;;;14.77;48.39;101676.41;4917328;29;20127;-65
2022/01/16 11:18:54;;;;;;;6.80;4.07;;;;;;;15.18;47.59;101674.41;4911756;29;20143;-64
2022/01/16 11:21:32;;;;;;;7.67;4.60;;;;;;;15.75;46.43;101673.13;4916453;29;20515;-65
2022/01/16 11:26:27;;;;;;;6.57;2.93;;;;;;;16.65;44.76;101677.66;4917321;29;20136;-64
2022/01/16 11:28:56;;;;;;;3.67;3.33;;;;;;;16.80;43.61;101666.25;4918004;29;20574;-66
2022/01/16 11:31:23;;;;;;;5.50;3.58;;;;;;;16.55;43.53;101664.47;4918371;29;20139;-66
2022/01/16 11:33:50;;;;;;;7.63;4.15;;;;;;;16.69;43.15;101678.75;4916905;29;20474;-65
2022/01/16 11:36:21;;;;;;;7.97;4.43;;;;;;;17.25;43.12;101678.25;4916976;29;20079;-65
2022/01/16 11:38:58;;;;;;;5.55;3.60;;;;;;;17.78;41.64;101683.06;4909497;29;20464;-65
2022/01/16 11:41:40;;;;;;;6.15;3.08;;;;;;;18.21;41.41;101672.56;4918343;29;20131;-65
2022/01/16 11:44:29;;;;;;;2.90;2.28;;;;;;;18.18;40.26;101675.16;4917193;29;20618;-65
2022/01/16 11:47:03;;;;;;;4.80;3.67;;;;;;;18.13;39.95;101669.59;4917804;29;20559;-65
2022/01/16 11:49:32;;;;;;;4.63;3.50;;;;;;;18.55;39.85;101676.31;4917938;29;20076;-65
2022/01/16 11:52:28;;;;;;;8.85;6.28;;;;;;;18.94;39.37;101679.63;4915547;29;20078;-65
2022/01/16 11:55:07;;;;;;;6.18;3.85;;;;;;;19.51;38.59;101670.91;4917571;29;20134;-66
2022/01/16 11:57:35;;;;;;;7.97;4.30;;;;;;;19.93;38.10;101679.44;4899234;29;20075;-65
2022/01/16 12:00:08;;;;;;;7.18;3.35;;;;;;;19.89;37.07;101656.56;4917450;29;20098;-64
2022/01/16 12:02:42;;;;;;;10.48;4.50;;;;;;;19.88;37.25;101660.56;4917423;29;20400;-65
2022/01/16 12:05:10;;;;;;;7.75;4.25;;;;;;;20.04;37.10;101666.75;4913304;29;20136;-66
2022/01/16 12:07:37;;;;;;;8.27;4.35;;;;;;;19.95;36.88;101663.78;4914163;29;20187;-66
2022/01/16 12:10:05;;;;;;;4.43;3.17;;;;;;;19.95;36.82;101632.59;4910965;29;20102;-65
2022/01/16 12:12:32;;;;;;;9.65;5.10;;;;;;;19.99;36.45;101659.16;4910715;29;20127;-65
2022/01/16 12:15:05;;;;;;;7.65;5.03;;;;;;;20.42;36.43;101652.25;4906730;29;20119;-65
2022/01/16 12:17:40;;;;;;;7.68;4.90;;;;;;;21.08;35.90;101661.09;4913207;29;20756;-64
2022/01/16 12:20:13;;;;;;;7.13;4.05;;;;;;;21.20;35.32;101642.28;4934413;29;20162;-66
2022/01/16 12:22:42;;;;;;;10.35;5.13;;;;;;;20.55;36.00;101646.53;4906480;29;20481;-65
2022/01/16 12:25:24;;;;;;;12.20;5.60;;;;;;;20.34;36.52;101631.13;4906180;29;20141;-65
2022/01/16 12:27:54;;;;;;;11.40;4.55;;;;;;;20.12;36.72;101634.78;4908944;29;20599;-64
2022/01/16 12:30:50;;;;;;;7.30;3.78;;;;;;;19.70;37.27;101641.69;4907563;29;20075;-66
2022/01/16 12:33:28;;;;;;;10.32;5.40;;;;;;;19.36;37.74;101640.06;4907432;29;20533;-65